Warm Springs, Montana
Current Conditions -  °F | °C
As of 7:08 AM on Monday 22 Dec 2014 (Local Time) from KBTM Reporting Station
Light Snow Light Snow  
Wind Chill: 17°   Ceiling: 1300
Heat Index: 27°   Visibility: 0.75mi
Dew Point: 25°   Wind: 10mph
Humidity: 92%   Direction: 330°NNW
Pressure: 29.9"   Gusts: NA
Location:  46.18°N, 112.79°W
Report Text: KBTM 221408Z AUTO 33009KT 3/4SM -SN BR VV013 M03/M04 A2990 RMK AO2 P0001 T10281039
Loading
Personal Weather Stations






























Interactive Weather Map New forecast layout! Learn more

10-Day Weather Forecast

Advertisements
Track Severe Weather on mobile